PRIVATE WETTERSTATION BILLIGHEIM-ALLFELD                       ZURCK
Wetterdaten: Donnerstag, 13.10.2016
Datum Zeit Temp. A. Temp. A. min Temp. A. max Feuchte A. Luftdruck Regen Wind Richtung Richtung Sonnenschein ET Solar Taupunkt Windchill Windben Empfang
13.10.2016 00:00 4,4 C 4,4 C 4,4 C 90 % 1017,3 hPa 0,0 l/m 0,0 km/h (0 Bft) N-NO 22 0 min 0,000 mm 0 W/m 2,9 C 4,4 C 1,6 km/h (1 Bft) 100 %
13.10.2016 00:10 4,3 C 4,3 C 4,4 C 90 % 1017,5 hPa 0,0 l/m 0,0 km/h (0 Bft) N-NW 337 0 min 0,000 mm 0 W/m 2,8 C 4,3 C 4,8 km/h (1 Bft) 100 %
13.10.2016 00:20 4,2 C 4,2 C 4,3 C 90 % 1017,5 hPa 0,0 l/m 0,0 km/h (0 Bft) N 360 0 min 0,000 mm 0 W/m 2,7 C 4,2 C 8,0 km/h (2 Bft) 100 %
13.10.2016 00:30 4,2 C 4,2 C 4,2 C 90 % 1017,5 hPa 0,0 l/m 0,0 km/h (0 Bft) N-NO 22 0 min 0,000 mm 0 W/m 2,7 C 4,2 C 6,4 km/h (2 Bft) 100 %
13.10.2016 00:40 4,1 C 4,1 C 4,2 C 91 % 1017,5 hPa 0,0 l/m 0,0 km/h (0 Bft) NO 45 0 min 0,000 mm 0 W/m 2,8 C 4,1 C 3,2 km/h (1 Bft) 100 %
13.10.2016 00:50 4,1 C 4,1 C 4,1 C 91 % 1017,5 hPa 0,0 l/m 0,0 km/h (0 Bft) NO 45 0 min 0,000 mm 0 W/m 2,8 C 4,1 C 4,8 km/h (1 Bft) 100 %
13.10.2016 01:00 3,9 C 3,9 C 4,1 C 91 % 1017,5 hPa 0,0 l/m 0,0 km/h (0 Bft) NO 45 0 min 0,000 mm 0 W/m 2,6 C 3,9 C 3,2 km/h (1 Bft) 100 %
13.10.2016 01:10 3,9 C 3,9 C 4,0 C 91 % 1017,4 hPa 0,0 l/m 0,0 km/h (0 Bft) N 360 0 min 0,000 mm 0 W/m 2,6 C 3,9 C 1,6 km/h (1 Bft) 100 %
13.10.2016 01:20 3,8 C 3,8 C 3,9 C 91 % 1017,4 hPa 0,0 l/m 0,0 km/h (0 Bft) N-NO 22 0 min 0,000 mm 0 W/m 2,5 C 3,8 C 4,8 km/h (1 Bft) 91 %
13.10.2016 01:30 3,8 C 3,8 C 3,8 C 91 % 1017,3 hPa 0,0 l/m 0,0 km/h (0 Bft) N-NO 22 0 min 0,000 mm 0 W/m 2,5 C 3,8 C 4,8 km/h (1 Bft) 100 %
13.10.2016 01:40 3,7 C 3,7 C 3,8 C 91 % 1017,3 hPa 0,0 l/m 0,0 km/h (0 Bft) N 360 0 min 0,000 mm 0 W/m 2,4 C 3,7 C 4,8 km/h (1 Bft) 100 %
13.10.2016 01:50 3,7 C 3,7 C 3,8 C 91 % 1017,3 hPa 0,0 l/m 0,0 km/h (0 Bft) S-SO 157 0 min 0,000 mm 0 W/m 2,4 C 3,7 C 1,6 km/h (1 Bft) 100 %
13.10.2016 02:00 3,8 C 3,7 C 3,8 C 91 % 1017,2 hPa 0,0 l/m 0,0 km/h (0 Bft) O-NO 67 0 min 0,000 mm 0 W/m 2,5 C 3,8 C 11,3 km/h (2 Bft) 100 %
13.10.2016 02:10 3,7 C 3,7 C 3,8 C 91 % 1017,2 hPa 0,0 l/m 0,0 km/h (0 Bft) N-NW 337 0 min 0,000 mm 0 W/m 2,4 C 3,7 C 3,2 km/h (1 Bft) 100 %
13.10.2016 02:20 3,7 C 3,7 C 3,7 C 91 % 1017,2 hPa 0,0 l/m 0,0 km/h (0 Bft) N-NW 337 0 min 0,000 mm 0 W/m 2,4 C 3,7 C 3,2 km/h (1 Bft) 100 %
13.10.2016 02:30 3,6 C 3,6 C 3,7 C 91 % 1017,3 hPa 0,0 l/m 0,0 km/h (0 Bft) NW 315 0 min 0,000 mm 0 W/m 2,3 C 3,6 C 3,2 km/h (1 Bft) 100 %
13.10.2016 02:40 3,6 C 3,6 C 3,6 C 91 % 1017,2 hPa 0,0 l/m 0,0 km/h (0 Bft) N-NO 22 0 min 0,000 mm 0 W/m 2,3 C 3,6 C 6,4 km/h (2 Bft) 100 %
13.10.2016 02:50 3,6 C 3,6 C 3,6 C 91 % 1017,2 hPa 0,0 l/m 0,0 km/h (0 Bft) N-NO 22 0 min 0,000 mm 0 W/m 2,3 C 3,6 C 4,8 km/h (1 Bft) 100 %
13.10.2016 03:00 3,5 C 3,5 C 3,6 C 91 % 1017,1 hPa 0,0 l/m 0,0 km/h (0 Bft) N-NW 337 0 min 0,000 mm 0 W/m 2,2 C 3,5 C 3,2 km/h (1 Bft) 100 %
13.10.2016 03:10 3,4 C 3,4 C 3,5 C 91 % 1017,1 hPa 0,0 l/m 0,0 km/h (0 Bft) N 360 0 min 0,000 mm 0 W/m 2,1 C 3,4 C 4,8 km/h (1 Bft) 100 %
13.10.2016 03:20 3,3 C 3,3 C 3,4 C 91 % 1017,0 hPa 0,0 l/m 0,0 km/h (0 Bft) N 360 0 min 0,000 mm 0 W/m 2,0 C 3,3 C 6,4 km/h (2 Bft) 100 %
13.10.2016 03:30 3,2 C 3,2 C 3,3 C 91 % 1017,0 hPa 0,0 l/m 0,0 km/h (0 Bft) N-NO 22 0 min 0,000 mm 0 W/m 1,9 C 3,2 C 4,8 km/h (1 Bft) 100 %
13.10.2016 03:40 3,1 C 3,1 C 3,2 C 91 % 1016,9 hPa 0,0 l/m 0,0 km/h (0 Bft) N 0 0 min 0,000 mm 0 W/m 1,8 C 3,1 C 0,0 km/h (0 Bft) 100 %
13.10.2016 03:50 3,0 C 3,0 C 3,1 C 91 % 1016,9 hPa 0,0 l/m 0,0 km/h (0 Bft) O 90 0 min 0,000 mm 0 W/m 1,7 C 3,0 C 1,6 km/h (1 Bft) 100 %
13.10.2016 04:00 2,9 C 2,9 C 3,0 C 91 % 1016,7 hPa 0,0 l/m 0,0 km/h (0 Bft) NO 45 0 min 0,000 mm 0 W/m 1,6 C 2,9 C 6,4 km/h (2 Bft) 100 %
13.10.2016 04:10 2,9 C 2,9 C 2,9 C 91 % 1016,7 hPa 0,0 l/m 0,0 km/h (0 Bft) NO 45 0 min 0,000 mm 0 W/m 1,6 C 2,9 C 1,6 km/h (1 Bft) 100 %
13.10.2016 04:20 2,8 C 2,8 C 2,9 C 91 % 1016,6 hPa 0,0 l/m 0,0 km/h (0 Bft) N 0 0 min 0,000 mm 0 W/m 1,5 C 2,8 C 0,0 km/h (0 Bft) 100 %
13.10.2016 04:30 2,8 C 2,8 C 2,8 C 91 % 1016,5 hPa 0,0 l/m 0,0 km/h (0 Bft) NO 45 0 min 0,000 mm 0 W/m 1,5 C 2,8 C 6,4 km/h (2 Bft) 100 %
13.10.2016 04:40 2,8 C 2,8 C 2,8 C 91 % 1016,4 hPa 0,2 l/m 0,0 km/h (0 Bft) O-NO 67 0 min 0,000 mm 0 W/m 1,5 C 2,8 C 4,8 km/h (1 Bft) 100 %
13.10.2016 04:50 2,8 C 2,8 C 2,9 C 91 % 1016,5 hPa 0,0 l/m 0,0 km/h (0 Bft) NO 45 0 min 0,000 mm 0 W/m 1,5 C 2,8 C 6,4 km/h (2 Bft) 100 %
13.10.2016 05:00 2,9 C 2,8 C 2,9 C 91 % 1016,4 hPa 0,0 l/m 0,0 km/h (0 Bft) NW 315 0 min 0,000 mm 0 W/m 1,6 C 2,9 C 4,8 km/h (1 Bft) 100 %
13.10.2016 05:10 2,9 C 2,9 C 2,9 C 91 % 1016,4 hPa 0,0 l/m 0,0 km/h (0 Bft) N-NW 337 0 min 0,000 mm 0 W/m 1,6 C 2,9 C 3,2 km/h (1 Bft) 100 %
13.10.2016 05:20 2,8 C 2,8 C 2,9 C 91 % 1016,4 hPa 0,0 l/m 0,0 km/h (0 Bft) NO 45 0 min 0,000 mm 0 W/m 1,5 C 2,8 C 4,8 km/h (1 Bft) 100 %
13.10.2016 05:30 2,8 C 2,8 C 2,9 C 91 % 1016,3 hPa 0,0 l/m 0,0 km/h (0 Bft) O-NO 67 0 min 0,000 mm 0 W/m 1,5 C 2,8 C 4,8 km/h (1 Bft) 100 %
13.10.2016 05:40 2,8 C 2,8 C 2,8 C 91 % 1016,4 hPa 0,0 l/m 0,0 km/h (0 Bft) NO 45 0 min 0,000 mm 0 W/m 1,5 C 2,8 C 6,4 km/h (2 Bft) 100 %
13.10.2016 05:50 2,7 C 2,7 C 2,8 C 91 % 1016,3 hPa 0,0 l/m 0,0 km/h (0 Bft) N 360 0 min 0,000 mm 0 W/m 1,4 C 2,7 C 4,8 km/h (1 Bft) 100 %
13.10.2016 06:00 2,7 C 2,6 C 2,7 C 91 % 1016,2 hPa 0,0 l/m 0,0 km/h (0 Bft) NO 45 0 min 0,000 mm 0 W/m 1,4 C 2,7 C 4,8 km/h (1 Bft) 100 %
13.10.2016 06:10 2,6 C 2,6 C 2,7 C 91 % 1016,2 hPa 0,0 l/m 0,0 km/h (0 Bft) SO 135 0 min 0,000 mm 0 W/m 1,3 C 2,6 C 6,4 km/h (2 Bft) 100 %
13.10.2016 06:20 2,7 C 2,6 C 2,7 C 91 % 1016,2 hPa 0,0 l/m 0,0 km/h (0 Bft) N-NW 337 0 min 0,000 mm 0 W/m 1,4 C 2,7 C 4,8 km/h (1 Bft) 89 %
13.10.2016 06:30 2,7 C 2,7 C 2,7 C 91 % 1016,2 hPa 0,0 l/m 0,0 km/h (0 Bft) O-NO 67 0 min 0,000 mm 0 W/m 1,4 C 2,7 C 6,4 km/h (2 Bft) 100 %
13.10.2016 06:40 2,7 C 2,7 C 2,7 C 91 % 1016,2 hPa 0,0 l/m 0,0 km/h (0 Bft) O-NO 67 0 min 0,000 mm 0 W/m 1,4 C 2,7 C 4,8 km/h (1 Bft) 100 %
13.10.2016 06:50 2,6 C 2,6 C 2,7 C 91 % 1016,0 hPa 0,0 l/m 0,0 km/h (0 Bft) N 360 0 min 0,000 mm 0 W/m 1,3 C 2,6 C 4,8 km/h (1 Bft) 100 %
13.10.2016 07:00 2,6 C 2,6 C 2,6 C 91 % 1016,1 hPa 0,0 l/m 0,0 km/h (0 Bft) O-NO 67 0 min 0,000 mm 0 W/m 1,3 C 2,6 C 4,8 km/h (1 Bft) 100 %
13.10.2016 07:10 2,6 C 2,6 C 2,6 C 91 % 1015,9 hPa 0,0 l/m 0,0 km/h (0 Bft) N 360 0 min 0,000 mm 0 W/m 1,3 C 2,6 C 4,8 km/h (1 Bft) 100 %
13.10.2016 07:20 2,6 C 2,6 C 2,7 C 91 % 1015,9 hPa 0,0 l/m 0,0 km/h (0 Bft) N-NO 22 0 min 0,000 mm 0 W/m 1,3 C 2,6 C 4,8 km/h (1 Bft) 100 %
13.10.2016 07:30 2,7 C 2,7 C 2,8 C 91 % 1015,8 hPa 0,0 l/m 0,0 km/h (0 Bft) N-NO 22 0 min 0,000 mm 0 W/m 1,4 C 2,7 C 4,8 km/h (1 Bft) 100 %
13.10.2016 07:40 2,8 C 2,7 C 2,8 C 91 % 1015,8 hPa 0,0 l/m 0,0 km/h (0 Bft) O 90 0 min 0,000 mm 5 W/m 1,5 C 2,8 C 8,0 km/h (2 Bft) 100 %
13.10.2016 07:50 2,8 C 2,8 C 2,8 C 91 % 1015,8 hPa 0,0 l/m 0,0 km/h (0 Bft) O 90 0 min 0,000 mm 11 W/m 1,5 C 2,8 C 6,4 km/h (2 Bft) 100 %
13.10.2016 08:00 2,9 C 2,8 C 2,9 C 91 % 1015,8 hPa 0,0 l/m 1,6 km/h (1 Bft) O-NO 67 0 min 0,000 mm 16 W/m 1,6 C 2,9 C 9,7 km/h (2 Bft) 90 %
13.10.2016 08:10 3,0 C 2,9 C 3,0 C 91 % 1015,9 hPa 0,0 l/m 1,6 km/h (1 Bft) O-SO 112 0 min 0,000 mm 19 W/m 1,7 C 3,0 C 8,0 km/h (2 Bft) 100 %
13.10.2016 08:20 3,1 C 3,0 C 3,1 C 91 % 1015,9 hPa 0,0 l/m 0,0 km/h (0 Bft) N-NO 22 0 min 0,000 mm 23 W/m 1,8 C 3,1 C 8,0 km/h (2 Bft) 100 %
13.10.2016 08:30 3,2 C 3,1 C 3,2 C 91 % 1015,8 hPa 0,0 l/m 0,0 km/h (0 Bft) O-SO 112 0 min 0,000 mm 30 W/m 1,9 C 3,2 C 9,7 km/h (2 Bft) 100 %
13.10.2016 08:40 3,3 C 3,2 C 3,3 C 91 % 1015,9 hPa 0,0 l/m 0,0 km/h (0 Bft) O-NO 67 0 min 0,000 mm 39 W/m 2,0 C 3,3 C 4,8 km/h (1 Bft) 100 %
13.10.2016 08:50 3,4 C 3,3 C 3,4 C 91 % 1016,0 hPa 0,0 l/m 1,6 km/h (1 Bft) SO 135 0 min 0,000 mm 46 W/m 2,1 C 3,4 C 11,3 km/h (2 Bft) 99 %
13.10.2016 09:00 3,6 C 3,4 C 3,6 C 91 % 1016,1 hPa 0,0 l/m 1,6 km/h (1 Bft) SO 135 0 min 0,025 mm 53 W/m 2,3 C 3,6 C 11,3 km/h (2 Bft) 100 %
13.10.2016 09:10 3,8 C 3,7 C 3,8 C 91 % 1016,2 hPa 0,0 l/m 1,6 km/h (1 Bft) O-SO 112 0 min 0,000 mm 69 W/m 2,5 C 3,8 C 8,0 km/h (2 Bft) 100 %
13.10.2016 09:20 4,1 C 3,8 C 4,1 C 91 % 1016,1 hPa 0,0 l/m 1,6 km/h (1 Bft) O-NO 67 0 min 0,000 mm 98 W/m 2,8 C 4,1 C 8,0 km/h (2 Bft) 100 %
13.10.2016 09:30 4,4 C 4,1 C 4,4 C 91 % 1016,1 hPa 0,0 l/m 0,0 km/h (0 Bft) SO 135 0 min 0,000 mm 109 W/m 3,1 C 4,4 C 8,0 km/h (2 Bft) 100 %
13.10.2016 09:40 4,7 C 4,4 C 4,7 C 91 % 1016,0 hPa 0,0 l/m 0,0 km/h (0 Bft) N 360 0 min 0,000 mm 151 W/m 3,4 C 4,7 C 8,0 km/h (2 Bft) 100 %
13.10.2016 09:50 4,9 C 4,7 C 4,9 C 91 % 1015,9 hPa 0,0 l/m 1,6 km/h (1 Bft) SO 135 10 min 0,000 mm 155 W/m 3,6 C 4,9 C 9,7 km/h (2 Bft) 100 %
13.10.2016 10:00 5,2 C 4,9 C 5,2 C 91 % 1015,9 hPa 0,0 l/m 1,6 km/h (1 Bft) O 90 10 min 0,051 mm 172 W/m 3,9 C 5,2 C 16,1 km/h (3 Bft) 100 %
13.10.2016 10:10 5,7 C 5,2 C 5,7 C 91 % 1015,9 hPa 0,0 l/m 1,6 km/h (1 Bft) SO 135 10 min 0,000 mm 288 W/m 4,3 C 5,7 C 9,7 km/h (2 Bft) 100 %
13.10.2016 10:20 6,0 C 5,7 C 6,0 C 91 % 1015,8 hPa 0,0 l/m 3,2 km/h (1 Bft) SO 135 10 min 0,000 mm 223 W/m 4,6 C 6,0 C 14,5 km/h (3 Bft) 100 %
13.10.2016 10:30 6,6 C 6,0 C 6,6 C 91 % 1015,8 hPa 0,0 l/m 1,6 km/h (1 Bft) SO 135 10 min 0,000 mm 297 W/m 5,2 C 6,6 C 9,7 km/h (2 Bft) 100 %
13.10.2016 10:40 7,2 C 6,6 C 7,2 C 89 % 1015,8 hPa 0,0 l/m 1,6 km/h (1 Bft) O-NO 67 10 min 0,000 mm 510 W/m 5,5 C 7,2 C 8,0 km/h (2 Bft) 100 %
13.10.2016 10:50 7,6 C 6,6 C 7,6 C 86 % 1015,8 hPa 0,0 l/m 5,1 km/h (1 Bft) N-NO 32 10 min 0,000 mm 158 W/m 5,4 C 7,6 C 14,5 km/h (3 Bft) 100 %
13.10.2016 11:00 7,3 C 7,3 C 7,6 C 85 % 1015,8 hPa 0,0 l/m 7,6 km/h (2 Bft) O-SO 105 10 min 0,000 mm 155 W/m 4,9 C 6,3 C 19,3 km/h (3 Bft) 100 %
13.10.2016 11:10 7,6 C 7,3 C 7,6 C 85 % 1015,4 hPa 0,0 l/m 4,1 km/h (1 Bft) O 98 0 min 0,102 mm 134 W/m 5,2 C 7,6 C 22,5 km/h (4 Bft) 100 %
13.10.2016 11:20 8,1 C 7,6 C 8,1 C 84 % 1015,3 hPa 0,0 l/m 4,5 km/h (1 Bft) SO 133 10 min 0,000 mm 272 W/m 5,6 C 8,1 C 17,7 km/h (3 Bft) 100 %
13.10.2016 11:30 8,6 C 8,1 C 8,6 C 81 % 1015,4 hPa 0,0 l/m 4,8 km/h (1 Bft) SO 139 10 min 0,000 mm 158 W/m 5,5 C 8,6 C 17,7 km/h (3 Bft) 100 %
13.10.2016 11:40 8,8 C 8,6 C 8,8 C 80 % 1015,2 hPa 0,0 l/m 5,5 km/h (1 Bft) O-SO 117 10 min 0,000 mm 476 W/m 5,5 C 8,8 C 17,7 km/h (3 Bft) 100 %
13.10.2016 11:50 9,2 C 8,8 C 9,2 C 79 % 1015,1 hPa 0,0 l/m 8,3 km/h (2 Bft) O-SO 121 10 min 0,000 mm 570 W/m 5,8 C 7,8 C 25,7 km/h (4 Bft) 100 %
13.10.2016 12:00 9,6 C 9,2 C 9,6 C 76 % 1014,9 hPa 0,0 l/m 9,5 km/h (2 Bft) O-SO 120 10 min 0,000 mm 733 W/m 5,6 C 7,5 C 24,1 km/h (4 Bft) 100 %
13.10.2016 12:10 10,1 C 9,6 C 10,1 C 77 % 1014,5 hPa 0,0 l/m 4,7 km/h (1 Bft) O 100 10 min 0,178 mm 733 W/m 6,3 C 10,1 C 25,7 km/h (4 Bft) 100 %
13.10.2016 12:20 10,3 C 10,1 C 10,4 C 74 % 1014,5 hPa 0,0 l/m 3,8 km/h (1 Bft) O 95 10 min 0,000 mm 181 W/m 5,9 C 10,3 C 14,5 km/h (3 Bft) 100 %
13.10.2016 12:30 9,9 C 9,9 C 10,3 C 77 % 1014,3 hPa 0,0 l/m 2,9 km/h (1 Bft) SO 128 10 min 0,000 mm 731 W/m 6,1 C 9,9 C 16,1 km/h (3 Bft) 100 %
13.10.2016 12:40 9,9 C 9,9 C 10,1 C 75 % 1014,1 hPa 0,0 l/m 3,0 km/h (1 Bft) O-SO 110 10 min 0,000 mm 218 W/m 5,7 C 9,9 C 11,3 km/h (2 Bft) 100 %
13.10.2016 12:50 9,6 C 9,6 C 9,9 C 77 % 1014,0 hPa 0,0 l/m 1,9 km/h (1 Bft) S-SO 159 10 min 0,000 mm 221 W/m 5,8 C 9,6 C 11,3 km/h (2 Bft) 100 %
13.10.2016 13:00 9,6 C 9,6 C 9,6 C 77 % 1014,1 hPa 0,0 l/m 1,6 km/h (1 Bft) N-NO 24 10 min 0,000 mm 260 W/m 5,8 C 9,6 C 9,7 km/h (2 Bft) 100 %
13.10.2016 13:10 9,5 C 9,5 C 9,6 C 76 % 1014,1 hPa 0,0 l/m 2,2 km/h (1 Bft) O-SO 117 10 min 0,152 mm 153 W/m 5,5 C 9,5 C 17,7 km/h (3 Bft) 100 %
13.10.2016 13:20 9,3 C 9,3 C 9,5 C 76 % 1014,0 hPa 0,0 l/m 2,1 km/h (1 Bft) NW 322 0 min 0,000 mm 134 W/m 5,3 C 9,3 C 16,1 km/h (3 Bft) 99 %
13.10.2016 13:30 9,2 C 9,1 C 9,3 C 76 % 1014,2 hPa 0,0 l/m 3,5 km/h (1 Bft) NO 38 10 min 0,000 mm 248 W/m 5,2 C 9,2 C 16,1 km/h (3 Bft) 100 %
13.10.2016 13:40 9,4 C 9,2 C 9,4 C 77 % 1014,2 hPa 0,0 l/m 3,2 km/h (1 Bft) O 101 10 min 0,000 mm 255 W/m 5,6 C 9,4 C 12,9 km/h (3 Bft) 100 %
13.10.2016 13:50 9,6 C 9,4 C 9,6 C 74 % 1014,1 hPa 0,0 l/m 4,7 km/h (1 Bft) NO 40 10 min 0,000 mm 304 W/m 5,2 C 9,6 C 16,1 km/h (3 Bft) 100 %
13.10.2016 14:00 10,0 C 9,6 C 10,0 C 76 % 1013,7 hPa 0,0 l/m 2,4 km/h (1 Bft) O 96 10 min 0,000 mm 258 W/m 6,0 C 10,0 C 17,7 km/h (3 Bft) 100 %
13.10.2016 14:10 10,5 C 10,0 C 10,5 C 76 % 1013,5 hPa 0,0 l/m 3,7 km/h (1 Bft) O-NO 69 10 min 0,102 mm 633 W/m 6,5 C 10,5 C 16,1 km/h (3 Bft) 100 %
13.10.2016 14:20 11,0 C 10,5 C 11,0 C 71 % 1013,3 hPa 0,0 l/m 4,6 km/h (1 Bft) O 99 10 min 0,000 mm 197 W/m 5,9 C 11,0 C 19,3 km/h (3 Bft) 100 %
13.10.2016 14:30 11,2 C 11,0 C 11,2 C 69 % 1013,3 hPa 0,0 l/m 4,9 km/h (1 Bft) O-NO 69 10 min 0,000 mm 229 W/m 5,7 C 11,2 C 17,7 km/h (3 Bft) 99 %
13.10.2016 14:40 10,9 C 10,9 C 11,2 C 71 % 1013,3 hPa 0,0 l/m 1,7 km/h (1 Bft) NO 53 10 min 0,000 mm 221 W/m 5,9 C 10,9 C 16,1 km/h (3 Bft) 100 %
13.10.2016 14:50 10,7 C 10,7 C 10,9 C 71 % 1012,9 hPa 0,0 l/m 6,2 km/h (2 Bft) N-NO 17 10 min 0,000 mm 422 W/m 5,7 C 10,7 C 22,5 km/h (4 Bft) 99 %
13.10.2016 15:00 10,9 C 10,7 C 10,9 C 71 % 1013,0 hPa 0,0 l/m 2,1 km/h (1 Bft) O-SO 118 10 min 0,152 mm 167 W/m 5,9 C 10,9 C 11,3 km/h (2 Bft) 100 %
13.10.2016 15:10 10,9 C 10,9 C 10,9 C 69 % 1012,8 hPa 0,0 l/m 4,2 km/h (1 Bft) SO 130 0 min 0,000 mm 132 W/m 5,4 C 10,9 C 14,5 km/h (3 Bft) 100 %
13.10.2016 15:20 10,9 C 10,9 C 10,9 C 71 % 1012,9 hPa 0,0 l/m 1,5 km/h (1 Bft) NO 34 0 min 0,000 mm 144 W/m 5,9 C 10,9 C 9,7 km/h (2 Bft) 100 %
13.10.2016 15:30 11,1 C 10,9 C 11,1 C 71 % 1012,8 hPa 0,0 l/m 1,5 km/h (1 Bft) O 93 10 min 0,000 mm 171 W/m 6,0 C 11,1 C 11,3 km/h (2 Bft) 100 %
13.10.2016 15:40 11,3 C 11,1 C 11,3 C 68 % 1012,6 hPa 0,0 l/m 3,2 km/h (1 Bft) O 90 0 min 0,000 mm 125 W/m 5,6 C 11,3 C 14,5 km/h (3 Bft) 99 %
13.10.2016 15:50 11,1 C 11,1 C 11,3 C 70 % 1012,8 hPa 0,0 l/m 3,0 km/h (1 Bft) O 94 0 min 0,000 mm 144 W/m 5,8 C 11,1 C 19,3 km/h (3 Bft) 100 %
13.10.2016 16:00 10,9 C 10,9 C 11,1 C 70 % 1012,5 hPa 0,0 l/m 0,9 km/h (0 Bft) W 280 0 min 0,076 mm 79 W/m 5,6 C 10,9 C 11,3 km/h (2 Bft) 100 %
13.10.2016 16:10 10,6 C 10,6 C 10,9 C 71 % 1012,5 hPa 0,0 l/m 2,3 km/h (1 Bft) N 360 0 min 0,000 mm 83 W/m 5,6 C 10,6 C 11,3 km/h (2 Bft) 91 %
13.10.2016 16:20 10,6 C 10,6 C 10,6 C 71 % 1012,4 hPa 0,0 l/m 0,5 km/h (0 Bft) N-NO 29 0 min 0,000 mm 77 W/m 5,6 C 10,6 C 8,0 km/h (2 Bft) 100 %
13.10.2016 16:30 10,8 C 10,6 C 10,8 C 71 % 1012,4 hPa 0,0 l/m 1,8 km/h (1 Bft) O-NO 74 0 min 0,000 mm 148 W/m 5,8 C 10,8 C 16,1 km/h (3 Bft) 100 %
13.10.2016 16:40 11,1 C 10,8 C 11,1 C 69 % 1012,4 hPa 0,0 l/m 2,2 km/h (1 Bft) O 84 0 min 0,000 mm 109 W/m 5,6 C 11,1 C 19,3 km/h (3 Bft) 100 %
13.10.2016 16:50 11,1 C 11,1 C 11,1 C 69 % 1012,1 hPa 0,0 l/m 1,8 km/h (1 Bft) NW 305 0 min 0,000 mm 86 W/m 5,6 C 11,1 C 12,9 km/h (3 Bft) 100 %
13.10.2016 17:00 11,2 C 11,1 C 11,2 C 69 % 1012,4 hPa 0,0 l/m 2,1 km/h (1 Bft) NO 56 0 min 0,051 mm 69 W/m 5,7 C 11,2 C 9,7 km/h (2 Bft) 100 %
13.10.2016 17:10 11,2 C 11,2 C 11,3 C 70 % 1012,1 hPa 0,0 l/m 1,0 km/h (0 Bft) N 10 0 min 0,000 mm 51 W/m 5,9 C 11,2 C 11,3 km/h (2 Bft) 100 %
13.10.2016 17:20 11,1 C 11,1 C 11,2 C 70 % 1011,9 hPa 0,0 l/m 4,0 km/h (1 Bft) O-SO 121 0 min 0,000 mm 37 W/m 5,8 C 11,1 C 17,7 km/h (3 Bft) 100 %
13.10.2016 17:30 10,9 C 10,9 C 11,1 C 71 % 1012,0 hPa 0,0 l/m 0,2 km/h (0 Bft) W-NW 298 0 min 0,000 mm 39 W/m 5,9 C 10,9 C 4,8 km/h (1 Bft) 100 %
13.10.2016 17:40 10,7 C 10,7 C 10,9 C 72 % 1011,9 hPa 0,0 l/m 2,2 km/h (1 Bft) O-SO 118 0 min 0,000 mm 32 W/m 5,9 C 10,7 C 11,3 km/h (2 Bft) 100 %
13.10.2016 17:50 10,4 C 10,4 C 10,7 C 73 % 1011,8 hPa 0,0 l/m 0,9 km/h (0 Bft) O-SO 105 0 min 0,000 mm 25 W/m 5,8 C 10,4 C 6,4 km/h (2 Bft) 100 %
13.10.2016 18:00 10,2 C 10,2 C 10,4 C 72 % 1011,9 hPa 0,0 l/m 1,9 km/h (1 Bft) NO 51 0 min 0,025 mm 21 W/m 5,4 C 10,2 C 9,7 km/h (2 Bft) 100 %
13.10.2016 18:10 10,0 C 10,0 C 10,2 C 72 % 1012,2 hPa 0,0 l/m 1,0 km/h (0 Bft) N-NO 33 0 min 0,000 mm 12 W/m 5,2 C 10,0 C 8,0 km/h (2 Bft) 100 %
13.10.2016 18:20 9,6 C 9,6 C 10,0 C 74 % 1012,4 hPa 0,0 l/m 1,1 km/h (1 Bft) O-NO 73 0 min 0,000 mm 7 W/m 5,2 C 9,6 C 9,7 km/h (2 Bft) 100 %
13.10.2016 18:30 9,2 C 9,2 C 9,6 C 76 % 1012,0 hPa 0,0 l/m 0,7 km/h (0 Bft) NO 36 0 min 0,000 mm 0 W/m 5,2 C 9,2 C 6,4 km/h (2 Bft) 100 %
13.10.2016 18:40 8,8 C 8,8 C 9,2 C 78 % 1011,8 hPa 0,0 l/m 0,6 km/h (0 Bft) N-NW 332 0 min 0,000 mm 0 W/m 5,2 C 8,8 C 8,0 km/h (2 Bft) 100 %
13.10.2016 18:50 8,6 C 8,6 C 8,8 C 79 % 1011,8 hPa 0,0 l/m 0,6 km/h (0 Bft) O-NO 59 0 min 0,000 mm 0 W/m 5,2 C 8,6 C 6,4 km/h (2 Bft) 100 %
13.10.2016 19:00 8,3 C 8,3 C 8,6 C 80 % 1011,9 hPa 0,0 l/m 0,4 km/h (0 Bft) O 85 0 min 0,000 mm 0 W/m 5,1 C 8,3 C 8,0 km/h (2 Bft) 100 %
13.10.2016 19:10 8,1 C 8,1 C 8,3 C 80 % 1011,9 hPa 0,0 l/m 0,3 km/h (0 Bft) NO 38 0 min 0,000 mm 0 W/m 4,9 C 8,1 C 8,0 km/h (2 Bft) 100 %
13.10.2016 19:20 7,9 C 7,9 C 8,1 C 81 % 1012,1 hPa 0,0 l/m 0,1 km/h (0 Bft) NO 40 0 min 0,000 mm 0 W/m 4,8 C 7,9 C 3,2 km/h (1 Bft) 100 %
13.10.2016 19:30 7,7 C 7,7 C 7,9 C 82 % 1012,2 hPa 0,0 l/m 0,1 km/h (0 Bft) N-NO 13 0 min 0,000 mm 0 W/m 4,8 C 7,7 C 3,2 km/h (1 Bft) 100 %
13.10.2016 19:40 7,4 C 7,4 C 7,7 C 83 % 1012,1 hPa 0,0 l/m 0,1 km/h (0 Bft) N-NO 18 0 min 0,000 mm 0 W/m 4,7 C 7,4 C 3,2 km/h (1 Bft) 100 %
13.10.2016 19:50 7,3 C 7,3 C 7,4 C 83 % 1012,1 hPa 0,0 l/m 0,5 km/h (0 Bft) N 355 0 min 0,000 mm 0 W/m 4,6 C 7,3 C 4,8 km/h (1 Bft) 100 %
13.10.2016 20:00 7,2 C 7,2 C 7,3 C 84 % 1012,3 hPa 0,0 l/m 0,0 km/h (0 Bft) NO 44 0 min 0,000 mm 0 W/m 4,7 C 7,2 C 0,0 km/h (0 Bft) 99 %
13.10.2016 20:10 7,1 C 7,1 C 7,2 C 85 % 1012,2 hPa 0,0 l/m 0,8 km/h (0 Bft) N-NO 20 0 min 0,000 mm 0 W/m 4,8 C 7,1 C 8,0 km/h (2 Bft) 99 %
13.10.2016 20:20 7,1 C 7,1 C 7,1 C 85 % 1012,1 hPa 0,0 l/m 0,0 km/h (0 Bft) O-NO 57 0 min 0,000 mm 0 W/m 4,8 C 7,1 C 1,6 km/h (1 Bft) 97 %
13.10.2016 20:30 7,1 C 7,1 C 7,1 C 85 % 1012,0 hPa 0,0 l/m 0,2 km/h (0 Bft) N-NW 345 0 min 0,000 mm 0 W/m 4,8 C 7,1 C 8,0 km/h (2 Bft) 95 %
13.10.2016 20:40 7,0 C 6,9 C 7,1 C 85 % 1012,2 hPa 0,0 l/m 0,4 km/h (0 Bft) N-NO 30 0 min 0,000 mm 0 W/m 4,7 C 7,0 C 4,8 km/h (1 Bft) 100 %
13.10.2016 20:50 6,9 C 6,9 C 7,0 C 85 % 1012,3 hPa 0,0 l/m 0,3 km/h (0 Bft) O 87 0 min 0,000 mm 0 W/m 4,6 C 6,9 C 4,8 km/h (1 Bft) 100 %
13.10.2016 21:00 6,8 C 6,8 C 6,9 C 85 % 1012,3 hPa 0,0 l/m 0,4 km/h (0 Bft) O-NO 74 0 min 0,000 mm 0 W/m 4,5 C 6,8 C 8,0 km/h (2 Bft) 100 %
13.10.2016 21:10 6,8 C 6,8 C 6,8 C 85 % 1012,0 hPa 0,0 l/m 0,0 km/h (0 Bft) NW 315 0 min 0,000 mm 0 W/m 4,5 C 6,8 C 4,8 km/h (1 Bft) 100 %
13.10.2016 21:20 6,8 C 6,8 C 6,8 C 85 % 1012,0 hPa 0,0 l/m 0,0 km/h (0 Bft) NW 315 0 min 0,000 mm 0 W/m 4,5 C 6,8 C 4,8 km/h (1 Bft) 100 %
13.10.2016 21:30 6,7 C 6,7 C 6,8 C 85 % 1012,2 hPa 0,0 l/m 0,0 km/h (0 Bft) N-NO 22 0 min 0,000 mm 0 W/m 4,4 C 6,7 C 8,0 km/h (2 Bft) 100 %
13.10.2016 21:40 6,6 C 6,6 C 6,7 C 85 % 1012,2 hPa 0,0 l/m 0,0 km/h (0 Bft) N-NO 22 0 min 0,000 mm 0 W/m 4,3 C 6,6 C 1,6 km/h (1 Bft) 100 %
13.10.2016 21:50 6,5 C 6,5 C 6,6 C 85 % 1012,1 hPa 0,0 l/m 0,0 km/h (0 Bft) O-NO 67 0 min 0,000 mm 0 W/m 4,2 C 6,5 C 4,8 km/h (1 Bft) 100 %
13.10.2016 22:00 6,3 C 6,3 C 6,5 C 85 % 1012,0 hPa 0,0 l/m 0,0 km/h (0 Bft) N-NW 337 0 min 0,000 mm 0 W/m 4,0 C 6,3 C 1,6 km/h (1 Bft) 100 %
13.10.2016 22:10 6,2 C 6,2 C 6,3 C 85 % 1011,9 hPa 0,0 l/m 0,0 km/h (0 Bft) N 0 0 min 0,000 mm 0 W/m 3,9 C 6,2 C 0,0 km/h (0 Bft) 100 %
13.10.2016 22:20 6,1 C 6,1 C 6,2 C 86 % 1012,0 hPa 0,0 l/m 0,0 km/h (0 Bft) SO 135 0 min 0,000 mm 0 W/m 3,9 C 6,1 C 1,6 km/h (1 Bft) 100 %
13.10.2016 22:30 5,9 C 5,9 C 6,1 C 86 % 1012,0 hPa 0,0 l/m 0,0 km/h (0 Bft) NO 45 0 min 0,000 mm 0 W/m 3,7 C 5,9 C 6,4 km/h (2 Bft) 100 %
13.10.2016 22:40 5,8 C 5,8 C 5,9 C 86 % 1012,1 hPa 0,0 l/m 0,0 km/h (0 Bft) W-NW 292 0 min 0,000 mm 0 W/m 3,6 C 5,8 C 1,6 km/h (1 Bft) 99 %
13.10.2016 22:50 5,7 C 5,7 C 5,8 C 87 % 1012,0 hPa 0,0 l/m 0,0 km/h (0 Bft) N 360 0 min 0,000 mm 0 W/m 3,7 C 5,7 C 6,4 km/h (2 Bft) 100 %
13.10.2016 23:00 5,7 C 5,7 C 5,7 C 87 % 1012,0 hPa 0,0 l/m 0,0 km/h (0 Bft) N 0 0 min 0,000 mm 0 W/m 3,7 C 5,7 C 0,0 km/h (0 Bft) 100 %
13.10.2016 23:10 5,6 C 5,6 C 5,7 C 87 % 1012,0 hPa 0,0 l/m 0,0 km/h (0 Bft) NO 45 0 min 0,000 mm 0 W/m 3,6 C 5,6 C 1,6 km/h (1 Bft) 99 %
13.10.2016 23:20 5,5 C 5,5 C 5,6 C 88 % 1011,9 hPa 0,0 l/m 0,0 km/h (0 Bft) N-NO 22 0 min 0,000 mm 0 W/m 3,7 C 5,5 C 1,6 km/h (1 Bft) 100 %
13.10.2016 23:30 5,4 C 5,4 C 5,5 C 88 % 1011,9 hPa 0,0 l/m 0,0 km/h (0 Bft) N-NO 22 0 min 0,000 mm 0 W/m 3,6 C 5,4 C 3,2 km/h (1 Bft) 100 %
13.10.2016 23:40 5,4 C 5,4 C 5,4 C 88 % 1011,8 hPa 0,0 l/m 0,0 km/h (0 Bft) N 0 0 min 0,000 mm 0 W/m 3,6 C 5,4 C 0,0 km/h (0 Bft) 100 %
13.10.2016 23:50 5,3 C 5,3 C 5,4 C 88 % 1011,6 hPa 0,0 l/m 0,0 km/h (0 Bft) N-NW 337 0 min 0,000 mm 0 W/m 3,5 C 5,3 C 9,7 km/h (2 Bft) 100 %
_ Min-Zeit 06:00 06:00 07:00 15:40 23:50 - 00:00 - - - - - 06:10 06:10 03:40 06:20
Minimum _ 2,6 C 2,6 C 2,6 C 68 % 1011,6 hPa - 0,0 km/h (0 Bft) - - - - - 1,3 C 2,6 C 0,0 km/h (0 Bft) 89 %
_ Max-Zeit 15:40 17:10 15:40 00:40 00:10 04:40 12:00 - - 09:50 12:10 12:00 14:10 15:40 11:50 00:00
Maximum _ 11,3 C 11,2 C 11,3 C 91 % 1017,5 hPa 0,2 l/m 9,5 km/h
O-SO (2 Bft)
- - 10 min 0,178 mm 733 W/m 6,5 C 11,3 C 25,7 km/h
SO (4 Bft)
100 %
Durchschnitt _ 6,4 C 6,3 C 6,5 C 84 % 1014,5 hPa #0,2 l/m 1,2 km/h (1 Bft) O - #5:10 h #0,914 mm 187 W/m 3,8 C 6,4 C 8,4 km/h (2 Bft) 100 %
PRIVATE WETTERSTATION BILLIGHEIM-ALLFELD - www.neckar-odenwald-wetter.de - Holger Sonntag